Portada
METAR-TAF:

METAR-TAF

Aeroports :

Brisbane, Austràlia

latitud: 27-23S, longitud: 153-06E, altitud: 4 m

Observació

L'informe es va fer fa 38 minuts, a les 21:30 UTC
Vent 7 kt del Sud
Temperatura 16°C
Humitat 55%
Pressió 1025 hPa
Visibilitat 10 km o més
sense núvols per sota de 1500 mi sense presència de cumulonimbus.

METAR: YBBN 272130Z 19007KT CAVOK 16/07 Q1025 NOSIG

Hora: 08:08 (22:08 UTC)

Pronòstic

L'informe es va fer fa 5 hores i 7 minuts, a les 17:01 UTC
Pronòstic vàlid del 27 a les 18 UTC al 29 a les 00 UTC
Vent 6 kt del Sud/Sud-Oest
Visibilitat 10 km o més
sense núvols per sota de 1500 mi sense presència de cumulonimbus.
A partir de les 28 a les 0000 UTC
Vent 12 kt del Sud-Est
Visibilitat 10 km o més
Escasses núvols a una alçada de 4500 ft
A partir de les 28 a les 1300 UTC
Vent 6 kt del Sud
Visibilitat 10 km o més
Núvols disperses a una alçada de 4000 ft

TAF: YBBN 271701Z 2718/2900 20006KT CAVOK FM280000 13012KT 9999 FEW045 FM281300 19006KT 9999 SCT040

Observacions i pronòstics meteorològics de més de 4000 aeroports (METAR i TAF).

Les estacions disponibles són els punts grocs i vermells al mapa.

Posi el ratolí al punt desitjat per veure el nom de l'estació.

Feu clic per veure les observacions i els pronòstics meteorològics.

Per canviar el mapa: feu clic els botons verds amb una creu de color negre per apropar; al botó verd amb un guió per allunyar la imatge; o en les fletxes verdes per a mapes adjacents.


METAR-TAF: